createdAt,value
2022-08-22T00:00:23.175Z,17.97
2022-08-22T00:02:56.460Z,20.51
2022-08-22T00:03:04.493Z,20.35
2022-08-22T00:03:24.226Z,17.95
2022-08-22T00:06:07.429Z,17.94
2022-08-22T00:08:46.584Z,17.92
2022-08-22T00:11:17.057Z,17.90
2022-08-22T00:14:01.406Z,17.91
2022-08-22T00:16:43.035Z,17.91
2022-08-22T00:19:17.487Z,17.88
2022-08-22T00:22:02.167Z,17.85
2022-08-22T00:24:46.183Z,17.85
2022-08-22T00:27:25.788Z,17.85
2022-08-22T00:30:11.555Z,17.85
2022-08-22T00:32:43.771Z,17.86
2022-08-22T00:35:33.066Z,17.87
2022-08-22T00:38:07.418Z,17.87
2022-08-22T00:40:41.022Z,17.87
2022-08-22T00:43:27.235Z,17.87
2022-08-22T00:46:32.526Z,17.88
2022-08-22T00:49:19.233Z,17.88
2022-08-22T00:51:56.247Z,17.90
2022-08-22T00:54:54.751Z,17.92
2022-08-22T00:57:48.826Z,17.95
2022-08-22T01:00:20.799Z,17.98
2022-08-22T01:03:01.772Z,18.02
2022-08-22T01:05:32.338Z,18.06
2022-08-22T01:08:41.892Z,18.09
2022-08-22T01:11:51.032Z,18.13
2022-08-22T01:14:37.897Z,18.18
2022-08-22T01:17:35.910Z,18.21
2022-08-22T01:20:23.373Z,18.24
2022-08-22T01:23:02.137Z,18.29
2022-08-22T01:25:50.967Z,18.33
2022-08-22T01:28:40.446Z,18.38
2022-08-22T01:32:01.231Z,18.41
2022-08-22T01:34:40.954Z,18.46
2022-08-22T01:37:33.520Z,18.50
2022-08-22T01:40:07.546Z,18.55
2022-08-22T01:42:51.220Z,18.58
2022-08-22T01:45:40.487Z,18.62
2022-08-22T01:48:18.981Z,18.64
2022-08-22T01:50:56.507Z,18.65
2022-08-22T01:53:41.686Z,18.67
2022-08-22T01:56:16.374Z,18.65
2022-08-22T01:59:10.860Z,18.61
2022-08-22T02:01:57.707Z,18.58
2022-08-22T02:04:52.830Z,18.56
2022-08-22T02:07:20.508Z,18.56
2022-08-22T02:10:15.836Z,18.57
2022-08-22T02:13:03.217Z,18.60
2022-08-22T02:15:45.268Z,18.62
2022-08-22T02:18:41.120Z,18.66
2022-08-22T02:21:17.299Z,18.69
2022-08-22T02:23:55.517Z,18.71
2022-08-22T02:26:30.066Z,18.73
2022-08-22T02:29:06.969Z,18.75
2022-08-22T02:31:58.165Z,18.78
2022-08-22T02:34:42.973Z,18.80
2022-08-22T02:37:29.577Z,18.82
2022-08-22T02:40:14.794Z,18.83
2022-08-22T02:42:48.055Z,18.85
2022-08-22T02:45:22.916Z,18.88
2022-08-22T02:48:02.108Z,18.89
2022-08-22T02:50:56.977Z,18.91
2022-08-22T02:53:52.922Z,18.93
2022-08-22T02:56:31.575Z,18.95
2022-08-22T02:59:15.328Z,18.96
2022-08-22T03:01:45.992Z,18.97
2022-08-22T03:04:31.854Z,18.98
2022-08-22T03:07:14.996Z,19.00
2022-08-22T03:09:57.378Z,19.03
2022-08-22T03:13:04.182Z,19.05
2022-08-22T03:15:55.372Z,19.08
2022-08-22T03:18:28.319Z,19.11
2022-08-22T03:21:15.428Z,19.13
2022-08-22T03:23:49.282Z,19.11
2022-08-22T03:26:30.723Z,19.12
2022-08-22T03:29:06.254Z,19.15
2022-08-22T03:31:35.853Z,19.16
2022-08-22T03:34:21.553Z,19.16
2022-08-22T03:37:43.677Z,19.17
2022-08-22T03:40:34.763Z,19.21
2022-08-22T03:43:50.988Z,19.24
2022-08-22T03:46:37.232Z,19.28
2022-08-22T03:49:14.180Z,19.31
2022-08-22T03:52:19.640Z,19.36
2022-08-22T03:55:09.372Z,19.42
2022-08-22T03:57:56.078Z,19.47
2022-08-22T04:01:03.706Z,19.54
2022-08-22T04:04:04.020Z,19.60
2022-08-22T04:06:53.750Z,19.69
2022-08-22T04:09:46.309Z,19.78
2022-08-22T04:12:43.907Z,19.86
2022-08-22T04:15:29.839Z,19.95
2022-08-22T04:18:36.785Z,20.03
2022-08-22T04:21:17.033Z,20.11
2022-08-22T04:24:07.385Z,20.17
2022-08-22T04:27:02.694Z,20.20
2022-08-22T04:29:41.735Z,20.22
2022-08-22T04:32:17.546Z,20.24
2022-08-22T04:34:51.284Z,20.25
2022-08-22T04:37:46.426Z,20.27
2022-08-22T04:40:23.981Z,20.31
2022-08-22T04:42:59.579Z,20.41
2022-08-22T04:45:32.914Z,20.53
2022-08-22T04:48:08.807Z,20.66
2022-08-22T04:50:45.997Z,20.81
2022-08-22T04:53:23.330Z,20.93
2022-08-22T04:55:54.198Z,21.07
2022-08-22T04:58:55.754Z,21.18
2022-08-22T05:01:57.749Z,21.33
2022-08-22T05:04:30.085Z,21.47
2022-08-22T05:07:20.362Z,21.57
2022-08-22T05:10:12.290Z,21.73
2022-08-22T05:12:46.091Z,21.88
2022-08-22T05:15:22.965Z,22.00
2022-08-22T05:17:53.856Z,22.11
2022-08-22T05:20:26.527Z,22.23
2022-08-22T05:23:01.611Z,22.36
2022-08-22T05:25:36.438Z,22.48
2022-08-22T05:28:11.985Z,22.62
2022-08-22T05:30:40.247Z,22.76
2022-08-22T05:33:32.595Z,22.87
2022-08-22T05:36:07.845Z,23.05
2022-08-22T05:38:40.334Z,23.17
2022-08-22T05:41:11.302Z,23.31
2022-08-22T05:43:42.264Z,23.44
2022-08-22T05:46:19.085Z,23.54
2022-08-22T05:48:56.847Z,23.64
2022-08-22T05:51:48.757Z,23.74
2022-08-22T05:54:21.184Z,23.77
2022-08-22T05:57:20.254Z,23.88
2022-08-22T05:59:53.965Z,24.00
2022-08-22T06:02:26.329Z,24.10
2022-08-22T06:04:59.533Z,24.22
2022-08-22T06:07:35.472Z,24.35
2022-08-22T06:10:21.808Z,24.49
2022-08-22T06:13:05.339Z,24.61
2022-08-22T06:15:50.344Z,24.69
2022-08-22T06:18:24.154Z,24.75
2022-08-22T06:20:59.401Z,24.90
2022-08-22T06:23:30.504Z,25.06
2022-08-22T06:26:01.022Z,25.24
2022-08-22T06:28:37.504Z,25.43
2022-08-22T06:31:30.204Z,25.65
2022-08-22T06:34:03.862Z,25.73
2022-08-22T06:36:34.159Z,25.67
2022-08-22T06:39:05.658Z,25.62
2022-08-22T06:41:37.652Z,25.61
2022-08-22T06:44:07.685Z,25.54
2022-08-22T06:46:37.565Z,25.48
2022-08-22T06:49:07.333Z,25.52
2022-08-22T06:51:37.113Z,25.56
2022-08-22T06:54:08.284Z,25.69
2022-08-22T06:56:40.399Z,25.85
2022-08-22T06:59:14.019Z,26.09
2022-08-22T07:02:09.856Z,26.37
2022-08-22T07:04:38.700Z,26.71
2022-08-22T07:07:06.529Z,26.94
2022-08-22T07:09:37.371Z,27.04
2022-08-22T07:12:18.389Z,27.05
2022-08-22T07:14:51.470Z,27.14
2022-08-22T07:17:26.116Z,27.37
2022-08-22T07:20:10.882Z,27.44
2022-08-22T07:22:39.281Z,27.65
2022-08-22T07:25:13.734Z,27.88
2022-08-22T07:28:00.472Z,28.05
2022-08-22T07:30:44.311Z,28.12
2022-08-22T07:33:27.103Z,28.12
2022-08-22T07:36:04.090Z,28.18
2022-08-22T07:38:43.083Z,28.21
2022-08-22T07:41:24.669Z,28.36
2022-08-22T07:43:55.205Z,28.51
2022-08-22T07:46:32.856Z,28.78
2022-08-22T07:49:15.570Z,29.06
2022-08-22T07:51:55.723Z,29.17
2022-08-22T07:54:41.801Z,29.33
2022-08-22T07:57:22.513Z,29.77
2022-08-22T07:59:55.638Z,30.01
2022-08-22T08:02:24.555Z,30.16
2022-08-22T08:04:55.194Z,30.19
2022-08-22T08:07:26.111Z,30.13
2022-08-22T08:10:01.679Z,30.32
2022-08-22T08:12:34.208Z,30.44
2022-08-22T08:15:04.623Z,30.65
2022-08-22T08:17:34.747Z,30.80
2022-08-22T08:20:12.211Z,30.89
2022-08-22T08:22:43.674Z,30.99
2022-08-22T08:25:17.669Z,31.05
2022-08-22T08:28:04.505Z,30.78
2022-08-22T08:30:32.355Z,30.57
2022-08-22T08:33:24.625Z,30.40
2022-08-22T08:36:10.174Z,30.33
2022-08-22T08:38:45.622Z,30.11
2022-08-22T08:41:46.972Z,30.17
2022-08-22T08:44:35.852Z,30.32
2022-08-22T08:47:06.351Z,30.32
2022-08-22T08:49:42.952Z,30.33
2022-08-22T08:52:11.102Z,30.41
2022-08-22T08:54:44.992Z,30.49
2022-08-22T08:57:42.862Z,30.30
2022-08-22T09:00:16.377Z,30.21
2022-08-22T09:02:54.193Z,30.17
2022-08-22T09:05:49.879Z,29.97
2022-08-22T09:08:34.852Z,29.81
2022-08-22T09:11:28.115Z,29.88
2022-08-22T09:13:59.415Z,29.94
2022-08-22T09:16:51.294Z,30.08
2022-08-22T09:19:23.336Z,30.24
2022-08-22T09:22:19.802Z,30.27
2022-08-22T09:24:56.501Z,30.40
2022-08-22T09:27:34.174Z,30.38
2022-08-22T09:30:15.432Z,30.44
2022-08-22T09:32:48.620Z,30.53
2022-08-22T09:35:33.982Z,30.59
2022-08-22T09:38:14.381Z,30.42
2022-08-22T09:41:09.085Z,30.23
2022-08-22T09:43:44.759Z,29.87
2022-08-22T09:46:31.999Z,29.87
2022-08-22T09:49:24.115Z,30.08
2022-08-22T09:52:15.218Z,30.24
2022-08-22T09:55:04.236Z,30.31
2022-08-22T09:57:48.011Z,30.33
2022-08-22T10:00:47.922Z,30.58
2022-08-22T10:04:01.078Z,31.02
2022-08-22T10:06:39.659Z,31.21
2022-08-22T10:09:19.037Z,32.17
2022-08-22T10:12:00.118Z,35.19
2022-08-22T10:14:58.449Z,36.55
2022-08-22T10:17:32.408Z,36.02
2022-08-22T10:20:11.749Z,35.67
2022-08-22T10:23:07.248Z,36.04
2022-08-22T10:25:41.808Z,35.69
2022-08-22T10:28:22.769Z,35.71
2022-08-22T10:31:16.020Z,35.48
2022-08-22T10:33:48.466Z,35.11
2022-08-22T10:36:26.264Z,34.79
2022-08-22T10:38:55.328Z,34.61
2022-08-22T10:42:00.083Z,34.18
2022-08-22T10:44:55.981Z,33.42
2022-08-22T10:47:40.123Z,32.72
2022-08-22T10:50:20.226Z,32.30
2022-08-22T10:52:50.079Z,31.95
2022-08-22T10:55:25.395Z,31.83
2022-08-22T10:58:16.558Z,31.56
2022-08-22T11:00:58.826Z,31.45
2022-08-22T11:04:05.128Z,31.20
2022-08-22T11:06:39.065Z,30.72
2022-08-22T11:09:28.095Z,30.50
2022-08-22T11:12:35.237Z,30.27
2022-08-22T11:15:07.497Z,30.04
2022-08-22T11:18:07.208Z,29.74
2022-08-22T11:20:44.088Z,29.50
2022-08-22T11:23:27.342Z,29.37
2022-08-22T11:26:33.690Z,29.39
2022-08-22T11:29:27.405Z,29.49
2022-08-22T11:32:07.932Z,29.56
2022-08-22T11:34:38.752Z,29.54
2022-08-22T11:37:43.453Z,29.45
2022-08-22T11:40:31.458Z,29.39
2022-08-22T11:43:39.292Z,29.40
2022-08-22T11:46:21.651Z,29.23
2022-08-22T11:49:04.546Z,29.02
2022-08-22T11:51:49.472Z,28.86
2022-08-22T11:54:31.089Z,28.76
2022-08-22T11:57:10.754Z,28.72
2022-08-22T11:59:57.251Z,28.64
2022-08-22T12:02:42.273Z,28.56
2022-08-22T12:05:26.290Z,28.52
2022-08-22T12:08:09.365Z,28.50
2022-08-22T12:11:07.831Z,28.57
2022-08-22T12:14:05.145Z,28.59
2022-08-22T12:16:55.118Z,28.54
2022-08-22T12:19:33.450Z,28.51
2022-08-22T12:22:10.203Z,28.40
2022-08-22T12:25:17.122Z,28.30
2022-08-22T12:27:57.314Z,28.18
2022-08-22T12:30:49.586Z,28.13
2022-08-22T12:33:41.094Z,28.05
2022-08-22T12:36:28.976Z,28.01
2022-08-22T12:39:09.701Z,28.14
2022-08-22T12:42:06.454Z,28.24
2022-08-22T12:44:37.214Z,28.38
2022-08-22T12:47:18.190Z,28.58
2022-08-22T12:50:13.578Z,28.68
2022-08-22T12:52:54.481Z,28.72
2022-08-22T12:55:50.766Z,28.75
2022-08-22T12:58:22.988Z,28.70
2022-08-22T13:00:52.601Z,28.68
2022-08-22T13:03:29.698Z,28.64
2022-08-22T13:06:00.567Z,28.73
2022-08-22T13:08:37.115Z,28.93
2022-08-22T13:11:17.458Z,29.04
2022-08-22T13:13:57.158Z,29.22
2022-08-22T13:16:33.861Z,29.40
2022-08-22T13:19:14.542Z,29.54
2022-08-22T13:21:56.834Z,29.62
2022-08-22T13:24:38.691Z,29.69
2022-08-22T13:27:16.519Z,29.67
2022-08-22T13:29:58.922Z,29.64
2022-08-22T13:32:37.502Z,29.56
2022-08-22T13:35:09.735Z,29.54
2022-08-22T13:37:41.374Z,29.61
2022-08-22T13:40:13.597Z,29.75
2022-08-22T13:42:47.865Z,29.93
2022-08-22T13:45:36.673Z,30.08
2022-08-22T13:48:28.529Z,30.23
2022-08-22T13:51:18.755Z,30.26
2022-08-22T13:54:01.071Z,30.29
2022-08-22T13:56:39.280Z,30.38
2022-08-22T13:59:50.167Z,30.41
2022-08-22T14:02:43.293Z,30.47
2022-08-22T14:05:17.428Z,30.45
2022-08-22T14:07:50.561Z,30.41
2022-08-22T14:10:25.808Z,30.38
2022-08-22T14:12:55.465Z,30.25
2022-08-22T14:15:45.093Z,30.14
2022-08-22T14:18:30.302Z,30.15
2022-08-22T14:21:40.641Z,30.03
2022-08-22T14:24:27.207Z,29.85
2022-08-22T14:27:05.724Z,29.87
2022-08-22T14:29:50.159Z,29.90
2022-08-22T14:32:18.538Z,29.98
2022-08-22T14:34:59.636Z,30.05
2022-08-22T14:37:35.500Z,30.07
2022-08-22T14:40:29.379Z,30.03
2022-08-22T14:43:10.537Z,29.93
2022-08-22T14:45:46.779Z,29.79
2022-08-22T14:48:32.667Z,29.60
2022-08-22T14:51:08.411Z,29.56
2022-08-22T14:53:41.186Z,29.54
2022-08-22T14:56:18.194Z,29.52
2022-08-22T14:58:54.063Z,29.54
2022-08-22T15:01:26.917Z,29.51
2022-08-22T15:04:06.537Z,29.48
2022-08-22T15:06:53.737Z,29.45
2022-08-22T15:09:36.773Z,29.38
2022-08-22T15:12:29.260Z,29.29
2022-08-22T15:15:00.363Z,29.24
2022-08-22T15:17:54.582Z,29.12
2022-08-22T15:20:36.282Z,29.06
2022-08-22T15:23:20.148Z,29.02
2022-08-22T15:26:05.912Z,28.95
2022-08-22T15:28:52.264Z,28.88
2022-08-22T15:31:22.234Z,28.82
2022-08-22T15:33:51.337Z,28.79
2022-08-22T15:36:24.958Z,28.77
2022-08-22T15:38:56.627Z,28.70
2022-08-22T15:41:36.249Z,28.65
2022-08-22T15:44:32.525Z,28.64
2022-08-22T15:47:03.456Z,28.59
2022-08-22T15:49:38.049Z,28.51
2022-08-22T15:52:19.890Z,28.45
2022-08-22T15:54:53.888Z,28.39
2022-08-22T15:57:38.806Z,28.30
2022-08-22T16:00:27.998Z,28.23
2022-08-22T16:03:10.202Z,28.15
2022-08-22T16:05:55.692Z,28.08
2022-08-22T16:08:44.523Z,28.01
2022-08-22T16:11:33.482Z,27.90
2022-08-22T16:14:25.133Z,27.78
2022-08-22T16:17:01.076Z,27.68
2022-08-22T16:19:31.534Z,27.62
2022-08-22T16:22:02.161Z,27.56
2022-08-22T16:24:56.413Z,27.51
2022-08-22T16:27:26.199Z,27.45
2022-08-22T16:30:04.700Z,27.37
2022-08-22T16:32:32.600Z,27.29
2022-08-22T16:35:00.362Z,27.21
2022-08-22T16:37:44.995Z,27.14
2022-08-22T16:40:19.103Z,27.08
2022-08-22T16:42:51.847Z,27.02
2022-08-22T16:45:35.755Z,26.92
2022-08-22T16:48:21.985Z,26.80
2022-08-22T16:51:15.202Z,26.67
2022-08-22T16:54:02.292Z,26.51
2022-08-22T16:56:35.032Z,26.36
2022-08-22T16:59:23.381Z,26.24
2022-08-22T17:02:07.022Z,26.13
2022-08-22T17:04:51.004Z,26.02
2022-08-22T17:07:43.021Z,25.91
2022-08-22T17:10:41.340Z,25.81
2022-08-22T17:13:43.078Z,25.71
2022-08-22T17:16:24.044Z,25.59
2022-08-22T17:19:13.276Z,25.49
2022-08-22T17:21:53.540Z,25.41
2022-08-22T17:24:45.871Z,25.35
2022-08-22T17:27:31.941Z,25.30
2022-08-22T17:30:02.743Z,25.27
2022-08-22T17:32:33.604Z,25.23
2022-08-22T17:35:24.555Z,25.16
2022-08-22T17:38:05.411Z,25.07
2022-08-22T17:41:10.412Z,24.99
2022-08-22T17:44:01.510Z,24.90
2022-08-22T17:46:49.980Z,24.79
2022-08-22T17:49:47.782Z,24.68
2022-08-22T17:52:42.589Z,24.55
2022-08-22T17:55:20.168Z,24.46
2022-08-22T17:57:59.920Z,24.36
2022-08-22T18:00:35.116Z,24.27
2022-08-22T18:03:23.759Z,24.19
2022-08-22T18:05:53.802Z,24.11
2022-08-22T18:11:42.653Z,23.99
2022-08-22T18:14:21.786Z,23.97
2022-08-22T18:16:54.455Z,23.90
2022-08-22T18:19:42.471Z,23.82
2022-08-22T18:22:20.022Z,23.74
2022-08-22T18:24:59.122Z,23.68
2022-08-22T18:27:49.461Z,23.62
2022-08-22T18:30:19.814Z,23.58
2022-08-22T18:32:56.053Z,23.55
2022-08-22T18:35:48.568Z,23.51
2022-08-22T18:38:50.652Z,23.45
2022-08-22T18:41:37.010Z,23.40
2022-08-22T18:44:27.766Z,23.32
2022-08-22T18:47:01.423Z,23.21
2022-08-22T18:49:39.466Z,23.12
2022-08-22T18:52:21.080Z,23.02
2022-08-22T18:55:23.170Z,22.92
2022-08-22T18:58:34.479Z,22.85
2022-08-22T19:01:23.616Z,22.78
2022-08-22T19:04:30.816Z,22.74
2022-08-22T19:07:21.371Z,22.70
2022-08-22T19:09:55.862Z,22.66
2022-08-22T19:12:35.752Z,22.61
2022-08-22T19:15:38.647Z,22.57
2022-08-22T19:18:24.983Z,22.53
2022-08-22T19:21:37.607Z,22.49
2022-08-22T19:24:26.011Z,22.47
2022-08-22T19:27:19.879Z,22.45
2022-08-22T19:29:47.605Z,22.43
2022-08-22T19:32:46.990Z,22.41
2022-08-22T19:35:19.661Z,22.39
2022-08-22T19:38:07.861Z,22.36
2022-08-22T19:40:44.797Z,22.34
2022-08-22T19:43:30.636Z,22.31
2022-08-22T19:46:00.833Z,22.29
2022-08-22T19:48:32.656Z,22.28
2022-08-22T19:51:26.147Z,22.26
2022-08-22T19:54:16.236Z,22.21
2022-08-22T19:57:11.396Z,22.16
2022-08-22T19:59:50.852Z,22.09
2022-08-22T20:02:44.926Z,22.02
2022-08-22T20:05:28.816Z,21.93
2022-08-22T20:08:24.929Z,21.85
2022-08-22T20:11:13.859Z,21.77
2022-08-22T20:13:41.836Z,21.68
2022-08-22T20:16:13.586Z,21.61
2022-08-22T20:19:07.690Z,21.54
2022-08-22T20:21:59.021Z,21.46
2022-08-22T20:24:43.728Z,21.35
2022-08-22T20:27:34.776Z,21.28
2022-08-22T20:30:15.248Z,21.23
2022-08-22T20:32:47.684Z,21.18
2022-08-22T20:35:22.165Z,21.13
2022-08-22T20:38:16.226Z,21.07
2022-08-22T20:41:21.066Z,21.04
2022-08-22T20:44:01.119Z,20.98
2022-08-22T20:46:47.083Z,20.91
2022-08-22T20:49:25.929Z,20.85
2022-08-22T20:52:09.782Z,20.80
2022-08-22T20:54:41.018Z,20.75
2022-08-22T20:57:16.213Z,20.72
2022-08-22T20:59:58.846Z,20.68
2022-08-22T21:02:41.756Z,20.66
2022-08-22T21:05:12.667Z,20.65
2022-08-22T21:07:45.879Z,20.63
2022-08-22T21:10:43.647Z,20.57
2022-08-22T21:13:22.239Z,20.55
2022-08-22T21:15:55.005Z,20.51
2022-08-22T21:18:32.735Z,20.46
2022-08-22T21:21:17.205Z,20.42
2022-08-22T21:23:48.248Z,20.38
2022-08-22T21:26:22.239Z,20.37
2022-08-22T21:28:50.259Z,20.37
2022-08-22T21:31:21.677Z,20.36
2022-08-22T21:33:52.017Z,20.36
2022-08-22T21:36:29.175Z,20.35
2022-08-22T21:39:12.232Z,20.34
2022-08-22T21:41:44.919Z,20.32
2022-08-22T21:44:30.978Z,20.28
2022-08-22T21:47:31.659Z,20.24
2022-08-22T21:50:05.673Z,20.21
2022-08-22T21:52:36.623Z,20.18
2022-08-22T21:55:35.438Z,20.13
2022-08-22T21:58:06.273Z,20.08
2022-08-22T22:00:57.406Z,20.03
2022-08-22T22:03:34.936Z,20.00
2022-08-22T22:06:05.764Z,19.94
2022-08-22T22:08:33.979Z,19.88
2022-08-22T22:11:12.449Z,19.83
2022-08-22T22:13:41.140Z,19.78
2022-08-22T22:16:09.587Z,19.70
2022-08-22T22:18:38.183Z,19.63
2022-08-22T22:21:06.191Z,19.58
2022-08-22T22:23:34.303Z,19.52
2022-08-22T22:26:04.524Z,19.50
2022-08-22T22:28:44.807Z,19.48
2022-08-22T22:31:13.490Z,19.47
2022-08-22T22:33:42.433Z,19.44
2022-08-22T22:36:23.169Z,19.39
2022-08-22T22:38:52.055Z,19.34
2022-08-22T22:41:23.368Z,19.28
2022-08-22T22:43:55.254Z,19.24
2022-08-22T22:46:24.189Z,19.20
2022-08-22T22:48:51.965Z,19.16
2022-08-22T22:51:20.006Z,19.14
2022-08-22T22:53:47.956Z,19.10
2022-08-22T22:56:21.680Z,19.06
2022-08-22T22:58:59.083Z,19.03
2022-08-22T23:01:29.067Z,19.01
2022-08-22T23:03:58.959Z,19.00
2022-08-22T23:06:35.851Z,18.98
2022-08-22T23:09:03.806Z,18.95
2022-08-22T23:11:32.377Z,18.91
2022-08-22T23:14:01.556Z,18.87
2022-08-22T23:16:35.061Z,18.83
2022-08-22T23:19:12.656Z,18.79
2022-08-22T23:21:41.137Z,18.75
2022-08-22T23:24:09.663Z,18.71
2022-08-22T23:26:38.002Z,18.70
2022-08-22T23:29:06.178Z,18.68
2022-08-22T23:31:37.742Z,18.64
2022-08-22T23:34:11.259Z,18.60
2022-08-22T23:36:41.882Z,18.57
2022-08-22T23:39:10.142Z,18.54
2022-08-22T23:41:40.462Z,18.53
2022-08-22T23:44:13.426Z,18.50
2022-08-22T23:46:43.045Z,18.50
2022-08-22T23:49:11.404Z,18.48
2022-08-22T23:51:39.637Z,18.46
2022-08-22T23:54:08.308Z,18.43
2022-08-22T23:56:41.830Z,18.41
2022-08-22T23:59:13.343Z,18.39
